Time;durP1;ratioP1;P1;durP2;ratioP2;P2;SDS_P1;SDS_P2;PMS_P1;PMS_P2;Temp;Humidity;BMP_temperature;BMP_pressure;BME280_temperature;BME280_humidity;BME280_pressure;Samples;Min_cycle;Max_cycle;Signal;HPM_P1;HPM_P2
2022/06/23 00:02:20;;;;;;;1.50;1.30;;;19.50;99.90;;;;;;5067420;28;20625;-90
2022/06/23 00:04:48;;;;;;;1.50;1.40;;;19.50;99.90;;;;;;5068070;28;21166;-90
2022/06/23 00:07:18;;;;;;;1.70;1.50;;;19.50;99.90;;;;;;5068074;28;21246;-89
2022/06/23 00:09:50;;;;;;;1.20;1.10;;;19.40;99.90;;;;;;5068580;28;20632;-90
2022/06/23 00:12:26;;;;;;;1.90;1.80;;;19.50;99.90;;;;;;5051423;28;20721;-90
2022/06/23 00:14:57;;;;;;;3.63;1.73;;;19.40;99.90;;;;;;5047704;28;20594;-89
2022/06/23 00:17:26;;;;;;;2.67;2.43;;;19.40;99.90;;;;;;5047630;28;21227;-90
2022/06/23 00:19:56;;;;;;;3.53;1.77;;;19.30;99.90;;;;;;5047719;28;20606;-90
2022/06/23 00:22:29;;;;;;;1.67;1.57;;;19.20;99.90;;;;;;5067624;28;21183;-90
2022/06/23 00:24:58;;;;;;;2.00;1.80;;;19.20;99.90;;;;;;5071870;28;20606;-90
2022/06/23 00:27:31;;;;;;;2.43;2.17;;;19.20;99.90;;;;;;5071009;28;21086;-90
2022/06/23 00:30:02;;;;;;;2.00;1.70;;;19.10;99.90;;;;;;5071713;28;20621;-90
2022/06/23 00:32:31;;;;;;;1.83;1.33;;;19.00;99.90;;;;;;5071145;28;20632;-90
2022/06/23 00:35:01;;;;;;;1.90;1.70;;;19.00;99.90;;;;;;5071543;28;20619;-90
2022/06/23 00:37:30;;;;;;;2.57;1.80;;;19.00;99.90;;;;;;5071175;28;21171;-90
2022/06/23 00:39:59;;;;;;;1.63;1.10;;;18.90;99.90;;;;;;5058246;28;21009;-90
2022/06/23 00:42:31;;;;;;;1.07;1.07;;;18.90;99.90;;;;;;5048639;28;20614;-89
2022/06/23 00:45:03;;;;;;;2.23;1.50;;;18.90;99.90;;;;;;5051694;28;21216;-90
2022/06/23 00:47:36;;;;;;;2.33;1.83;;;18.90;99.90;;;;;;5070930;28;20605;-90
2022/06/23 00:50:18;;;;;;;1.80;1.37;;;18.80;99.90;;;;;;5071343;28;20644;-89
2022/06/23 00:52:52;;;;;;;1.80;1.60;;;18.90;99.90;;;;;;5070953;28;20637;-89
2022/06/23 00:55:36;;;;;;;1.03;0.97;;;18.80;99.90;;;;;;5071216;28;20783;-90
2022/06/23 00:58:12;;;;;;;2.23;1.50;;;18.80;99.90;;;;;;5070547;28;20962;-89
2022/06/23 01:00:42;;;;;;;2.33;1.40;;;18.70;99.90;;;;;;5070217;28;20608;-90
2022/06/23 01:03:17;;;;;;;4.37;1.57;;;18.70;99.90;;;;;;5071047;28;20604;-90
2022/06/23 01:05:49;;;;;;;1.40;1.30;;;18.70;99.90;;;;;;5070532;28;20605;-90
2022/06/23 01:08:21;;;;;;;2.53;1.90;;;18.60;99.90;;;;;;5069367;28;20608;-90
2022/06/23 01:10:56;;;;;;;1.90;1.50;;;18.40;99.90;;;;;;5070559;28;21077;-89
2022/06/23 01:13:35;;;;;;;1.47;1.37;;;18.30;99.90;;;;;;5071119;28;20615;-90
2022/06/23 01:16:09;;;;;;;3.27;2.17;;;18.30;99.90;;;;;;5070587;28;20617;-90
2022/06/23 01:18:40;;;;;;;1.70;1.43;;;18.30;99.90;;;;;;5071294;28;20695;-90
2022/06/23 01:21:15;;;;;;;1.47;1.37;;;18.30;99.90;;;;;;5070539;28;20692;-91
2022/06/23 01:23:57;;;;;;;2.17;1.90;;;18.40;99.90;;;;;;5070225;28;21228;-90
2022/06/23 01:26:54;;;;;;;1.50;1.40;;;18.40;99.90;;;;;;5070057;28;20719;-90
2022/06/23 01:29:29;;;;;;;1.40;1.30;;;18.30;99.90;;;;;;5071056;28;21190;-90
2022/06/23 01:32:06;;;;;;;3.37;2.50;;;18.30;99.90;;;;;;5069761;28;21324;-90
2022/06/23 01:34:44;;;;;;;3.63;1.60;;;18.20;99.90;;;;;;5069591;28;20623;-89
2022/06/23 01:37:18;;;;;;;2.27;1.60;;;18.10;99.90;;;;;;5069969;28;20999;-89
2022/06/23 01:39:50;;;;;;;2.50;1.87;;;18.00;99.90;;;;;;5059013;28;20951;-89
2022/06/23 01:42:25;;;;;;;1.70;1.60;;;17.90;99.90;;;;;;5065204;28;20649;-89
2022/06/23 01:45:01;;;;;;;2.27;1.57;;;17.90;99.90;;;;;;5070574;28;20973;-89
2022/06/23 01:47:36;;;;;;;1.67;1.53;;;17.90;99.90;;;;;;5069874;28;20670;-89
2022/06/23 01:50:30;;;;;;;1.70;1.60;;;17.90;99.90;;;;;;5069931;28;20628;-89
2022/06/23 01:53:14;;;;;;;1.83;1.73;;;17.90;99.90;;;;;;5069944;28;20683;-89
2022/06/23 01:56:07;;;;;;;6.00;2.00;;;17.90;99.90;;;;;;5070068;28;20628;-89
2022/06/23 01:58:47;;;;;;;1.73;1.63;;;17.90;99.90;;;;;;5067238;28;21255;-89
2022/06/23 02:01:20;;;;;;;2.53;1.87;;;17.90;99.90;;;;;;5069231;28;21096;-89
2022/06/23 02:03:52;;;;;;;3.87;1.60;;;17.80;99.90;;;;;;5070069;28;20827;-89
2022/06/23 02:06:25;;;;;;;1.73;1.50;;;17.80;99.90;;;;;;5069287;28;20704;-89
2022/06/23 02:08:58;;;;;;;1.97;1.77;;;17.70;99.90;;;;;;5069798;28;20675;-89
2022/06/23 02:11:32;;;;;;;1.53;1.43;;;17.60;99.90;;;;;;5068681;28;20684;-87
2022/06/23 02:14:07;;;;;;;2.90;2.57;;;17.60;99.90;;;;;;5070074;28;20625;-89
2022/06/23 02:16:43;;;;;;;1.60;1.50;;;17.50;99.90;;;;;;5069457;28;21075;-89
2022/06/23 02:19:17;;;;;;;2.17;1.70;;;17.50;99.90;;;;;;5069704;28;20654;-89
2022/06/23 02:21:48;;;;;;;4.97;1.57;;;17.40;99.90;;;;;;5058222;28;21000;-88
2022/06/23 02:24:21;;;;;;;1.40;1.23;;;17.50;99.90;;;;;;5049632;28;20593;-89
2022/06/23 02:26:59;;;;;;;2.10;1.50;;;17.50;99.90;;;;;;5059413;28;20633;-89
2022/06/23 02:29:31;;;;;;;3.90;1.43;;;17.50;99.90;;;;;;5069619;28;20675;-89
2022/06/23 02:32:05;;;;;;;2.10;1.87;;;17.30;99.90;;;;;;5068734;28;21172;-89
2022/06/23 02:34:37;;;;;;;3.83;2.30;;;17.30;99.90;;;;;;5068804;28;20719;-89
2022/06/23 02:37:24;;;;;;;2.20;1.93;;;17.30;99.90;;;;;;5068663;28;20707;-89
2022/06/23 02:39:55;;;;;;;2.97;2.77;;;17.40;99.90;;;;;;5055893;28;21115;-89
2022/06/23 02:42:28;;;;;;;1.43;1.33;;;17.40;99.90;;;;;;5064055;28;20717;-89
2022/06/23 02:45:12;;;;;;;2.20;2.00;;;17.50;99.90;;;;;;5068022;28;21139;-89
2022/06/23 02:47:57;;;;;;;3.37;1.70;;;17.50;99.90;;;;;;5068551;28;21195;-89
2022/06/23 02:50:36;;;;;;;3.60;2.27;;;17.50;99.90;;;;;;5068920;28;21013;-89
2022/06/23 02:53:27;;;;;;;1.47;1.37;;;17.60;99.90;;;;;;5028848;28;20678;-89
2022/06/23 02:56:36;;;;;;;2.47;2.00;;;17.60;99.90;;;;;;5027170;28;21156;-90
2022/06/23 02:59:08;;;;;;;1.90;1.77;;;17.60;99.90;;;;;;5029517;28;20611;-88
2022/06/23 03:01:41;;;;;;;2.70;1.70;;;17.60;99.90;;;;;;5038232;28;20619;-89
2022/06/23 03:04:18;;;;;;;6.90;2.60;;;17.50;99.90;;;;;;5049213;28;20602;-89
2022/06/23 03:06:53;;;;;;;2.13;1.93;;;17.30;99.90;;;;;;5068144;28;20648;-89
2022/06/23 03:09:28;;;;;;;2.27;2.17;;;17.30;99.90;;;;;;5068342;28;20625;-88
2022/06/23 03:12:02;;;;;;;2.23;1.80;;;17.30;99.90;;;;;;5068218;28;20645;-89
2022/06/23 03:14:40;;;;;;;1.27;1.10;;;17.20;99.90;;;;;;5068750;28;21103;-89
2022/06/23 03:17:16;;;;;;;1.40;1.30;;;17.20;99.90;;;;;;5068191;28;20659;-89
2022/06/23 03:19:53;;;;;;;1.20;1.13;;;17.20;99.90;;;;;;5068848;28;20659;-89
2022/06/23 03:22:26;;;;;;;3.30;1.73;;;17.20;99.90;;;;;;5067816;28;20721;-89
2022/06/23 03:25:02;;;;;;;2.57;1.50;;;17.30;99.90;;;;;;5068972;28;20617;-89
2022/06/23 03:27:33;;;;;;;2.60;1.60;;;17.30;99.90;;;;;;5068334;28;20972;-89
2022/06/23 03:30:06;;;;;;;1.53;1.43;;;17.40;99.90;;;;;;5068403;28;21187;-89
2022/06/23 03:32:36;;;;;;;2.57;2.00;;;17.50;99.90;;;;;;5067750;28;20649;-89
2022/06/23 03:35:13;;;;;;;2.23;2.07;;;17.40;99.90;;;;;;5068173;28;20637;-89
2022/06/23 03:37:48;;;;;;;6.83;2.00;;;17.40;99.90;;;;;;5067970;28;20731;-89
2022/06/23 03:43:13;;;;;;;2.03;1.93;;;17.40;99.90;;;;;;5048166;28;20609;-89
2022/06/23 03:45:46;;;;;;;4.70;2.30;;;17.40;99.90;;;;;;5048532;28;20642;-89
2022/06/23 03:48:17;;;;;;;1.60;1.50;;;17.30;99.90;;;;;;5048069;28;20652;-88
2022/06/23 03:50:50;;;;;;;2.30;2.10;;;17.30;99.90;;;;;;5047206;28;21167;-89
2022/06/23 03:53:19;;;;;;;3.30;1.83;;;17.30;99.90;;;;;;5068155;28;20645;-90
2022/06/23 03:55:50;;;;;;;3.90;2.13;;;17.30;99.90;;;;;;5066938;28;20667;-89
2022/06/23 03:58:20;;;;;;;1.53;1.43;;;17.30;99.90;;;;;;5072404;28;20700;-89
2022/06/23 04:00:57;;;;;;;3.90;3.50;;;17.30;99.90;;;;;;5072364;28;20648;-89
2022/06/23 04:03:30;;;;;;;1.73;1.63;;;17.40;99.90;;;;;;5072588;28;20698;-89
2022/06/23 04:06:15;;;;;;;4.77;1.93;;;17.40;99.90;;;;;;5071840;28;20712;-89
2022/06/23 04:08:47;;;;;;;2.77;2.00;;;17.40;99.90;;;;;;5072033;28;20620;-89
2022/06/23 04:14:05;;;;;;;2.50;1.50;;;17.40;99.90;;;;;;5071761;28;20642;-89
2022/06/23 04:16:36;;;;;;;3.20;1.60;;;17.40;99.90;;;;;;5071833;28;20609;-90
2022/06/23 04:19:14;;;;;;;2.93;2.10;;;17.70;99.90;;;;;;5072331;28;20609;-90
2022/06/23 04:21:59;;;;;;;3.07;1.70;;;17.40;99.90;;;;;;5071152;28;20708;-89
2022/06/23 04:24:38;;;;;;;2.23;1.60;;;17.40;99.90;;;;;;5071956;28;20625;-89
2022/06/23 04:27:10;;;;;;;2.40;2.20;;;17.40;99.90;;;;;;5070696;28;20704;-89
2022/06/23 04:33:31;;;;;;;4.73;2.10;;;18.50;99.90;;;;;;5072004;28;20994;-90
2022/06/23 04:36:02;;;;;;;2.23;1.87;;;17.50;99.90;;;;;;5071317;28;20609;-89
2022/06/23 04:38:34;;;;;;;2.37;2.17;;;17.60;99.90;;;;;;5070917;28;20617;-89
2022/06/23 04:41:06;;;;;;;2.70;1.67;;;17.50;99.90;;;;;;5054553;28;20617;-89
2022/06/23 04:43:37;;;;;;;2.30;2.07;;;17.50;99.90;;;;;;5071567;28;20615;-89
2022/06/23 04:46:09;;;;;;;2.67;2.47;;;17.50;99.90;;;;;;5071499;28;20621;-88
2022/06/23 04:48:46;;;;;;;2.07;1.67;;;17.40;99.90;;;;;;5071909;28;20686;-89
2022/06/23 04:51:23;;;;;;;4.30;1.83;;;17.50;99.90;;;;;;5070931;28;20629;-89
2022/06/23 04:53:57;;;;;;;3.90;2.00;;;17.50;99.90;;;;;;5071303;28;20628;-89
2022/06/23 04:56:40;;;;;;;2.30;2.10;;;17.60;99.90;;;;;;5070100;28;20620;-91
2022/06/23 04:59:19;;;;;;;2.10;1.90;;;17.60;99.90;;;;;;5071512;28;20621;-88
2022/06/23 05:01:49;;;;;;;4.97;1.90;;;17.90;99.90;;;;;;5071168;28;20709;-89
2022/06/23 05:04:20;;;;;;;2.57;2.37;;;17.90;99.90;;;;;;5071360;28;20706;-89
2022/06/23 05:06:49;;;;;;;4.63;2.83;;;18.00;99.90;;;;;;5070640;28;20624;-90
2022/06/23 05:09:27;;;;;;;4.00;2.20;;;18.20;99.90;;;;;;5071127;28;20627;-90
2022/06/23 05:11:56;;;;;;;4.10;2.30;;;18.50;99.90;;;;;;5070745;28;20644;-89
2022/06/23 05:14:29;;;;;;;2.13;1.90;;;18.50;99.90;;;;;;5071324;28;20969;-89
2022/06/23 05:17:04;;;;;;;2.27;2.07;;;18.50;99.90;;;;;;5070644;28;20625;-89
2022/06/23 05:19:35;;;;;;;3.10;2.60;;;18.50;99.90;;;;;;5071432;28;20663;-89
2022/06/23 05:22:11;;;;;;;2.57;2.27;;;18.60;99.90;;;;;;5070706;28;20726;-89
2022/06/23 05:24:43;;;;;;;1.87;1.77;;;18.70;99.90;;;;;;5070642;28;21000;-90
2022/06/23 05:27:19;;;;;;;2.70;2.00;;;18.70;99.90;;;;;;5070124;28;20632;-90
2022/06/23 05:29:50;;;;;;;4.17;2.13;;;18.80;99.90;;;;;;5070957;28;20678;-90
2022/06/23 05:32:21;;;;;;;2.90;2.20;;;18.80;99.90;;;;;;5070494;28;20677;-90
2022/06/23 05:34:52;;;;;;;2.40;2.20;;;19.10;99.90;;;;;;5070761;28;20623;-91
2022/06/23 05:37:25;;;;;;;2.30;2.10;;;19.10;99.90;;;;;;5070025;28;20617;-90
2022/06/23 05:40:16;;;;;;;2.63;2.23;;;19.10;99.90;;;;;;5057819;28;20618;-89
2022/06/23 05:42:48;;;;;;;4.77;2.53;;;19.30;99.90;;;;;;5050216;28;20622;-90
2022/06/23 05:45:19;;;;;;;3.33;1.70;;;19.40;99.90;;;;;;5050559;28;20625;-90
2022/06/23 05:47:46;;;;;;;4.00;2.23;;;19.70;99.90;;;;;;5050204;28;20620;-90
2022/06/23 05:50:19;;;;;;;4.70;1.80;;;19.60;99.90;;;;;;5049546;28;21202;-89
2022/06/23 05:52:53;;;;;;;1.73;1.63;;;19.70;99.90;;;;;;5066290;28;20653;-90
2022/06/23 05:55:31;;;;;;;3.10;2.10;;;19.80;99.90;;;;;;5070493;28;20629;-91
2022/06/23 05:58:03;;;;;;;1.93;1.50;;;19.90;99.90;;;;;;5068831;28;20632;-90
2022/06/23 06:00:37;;;;;;;2.60;2.00;;;19.90;99.90;;;;;;5070216;28;20617;-90
2022/06/23 06:03:10;;;;;;;1.70;1.60;;;20.00;99.90;;;;;;5069987;28;20613;-90
2022/06/23 06:05:39;;;;;;;2.13;1.90;;;20.00;99.90;;;;;;5070485;28;20624;-90
2022/06/23 06:08:12;;;;;;;1.90;1.80;;;20.20;99.90;;;;;;5069036;28;21171;-90
2022/06/23 06:10:41;;;;;;;1.20;1.20;;;20.30;99.90;;;;;;5069818;28;20700;-89
2022/06/23 06:13:14;;;;;;;1.40;1.30;;;20.30;99.90;;;;;;5068498;28;20684;-89
2022/06/23 06:15:45;;;;;;;2.13;1.77;;;20.40;99.90;;;;;;5069749;28;20609;-89
2022/06/23 06:18:20;;;;;;;1.63;1.53;;;20.40;99.90;;;;;;5069387;28;20668;-89
2022/06/23 06:20:47;;;;;;;1.90;1.80;;;20.50;99.90;;;;;;5069140;28;20651;-89
2022/06/23 06:23:20;;;;;;;1.60;1.50;;;20.50;99.90;;;;;;5069711;28;20621;-89
2022/06/23 06:25:50;;;;;;;1.83;1.70;;;20.50;99.90;;;;;;5069020;28;20637;-89
2022/06/23 06:28:21;;;;;;;1.77;1.67;;;20.40;99.90;;;;;;5069769;28;20637;-89
2022/06/23 06:30:56;;;;;;;1.77;1.63;;;20.50;99.90;;;;;;5069552;28;20998;-88
2022/06/23 06:33:50;;;;;;;2.30;2.10;;;20.70;99.90;;;;;;5029681;28;21073;-89
2022/06/23 06:36:31;;;;;;;2.30;2.10;;;20.80;99.90;;;;;;5028212;28;20722;-89
2022/06/23 06:39:09;;;;;;;2.30;1.90;;;20.70;99.90;;;;;;5034186;28;20721;-89
2022/06/23 06:41:40;;;;;;;2.43;2.13;;;20.80;99.90;;;;;;5055181;28;20620;-89
2022/06/23 06:44:07;;;;;;;1.97;1.87;;;20.70;99.90;;;;;;5068959;28;20609;-89
2022/06/23 06:46:35;;;;;;;3.30;1.93;;;20.90;99.90;;;;;;5068480;28;20601;-90
2022/06/23 06:49:02;;;;;;;2.00;1.60;;;21.10;99.90;;;;;;5069688;28;20720;-88
2022/06/23 06:51:30;;;;;;;2.80;1.73;;;21.20;99.90;;;;;;5068059;28;20625;-89
2022/06/23 06:54:01;;;;;;;2.33;2.00;;;21.30;99.90;;;;;;5068652;28;20692;-89
2022/06/23 06:56:37;;;;;;;2.60;2.40;;;21.30;99.90;;;;;;5068150;28;20601;-89
2022/06/23 06:59:12;;;;;;;1.60;1.50;;;21.20;99.90;;;;;;5069509;28;20617;-89
2022/06/23 07:01:42;;;;;;;1.87;1.77;;;21.40;99.90;;;;;;5068600;28;20609;-88
2022/06/23 07:04:14;;;;;;;2.57;1.70;;;21.40;99.90;;;;;;5069226;28;20663;-88
2022/06/23 07:06:45;;;;;;;6.20;1.50;;;21.40;99.90;;;;;;5068263;28;20644;-89
2022/06/23 07:09:17;;;;;;;1.67;1.53;;;21.60;99.90;;;;;;5068425;28;21051;-89
2022/06/23 07:11:51;;;;;;;1.93;1.30;;;21.60;99.90;;;;;;5068099;28;20614;-89
2022/06/23 07:14:25;;;;;;;1.70;1.60;;;21.60;99.90;;;;;;5068624;28;20648;-88
2022/06/23 07:16:56;;;;;;;1.57;1.47;;;21.80;99.90;;;;;;5068605;28;21011;-89
2022/06/23 07:19:28;;;;;;;2.17;1.70;;;21.90;99.90;;;;;;5068786;28;21193;-90
2022/06/23 07:22:05;;;;;;;2.30;1.70;;;22.10;99.90;;;;;;5067555;28;20633;-88
2022/06/23 07:24:39;;;;;;;1.40;1.30;;;22.20;99.90;;;;;;5068774;28;20671;-91
2022/06/23 07:27:13;;;;;;;2.27;2.10;;;22.30;99.90;;;;;;5068142;28;20651;-89
2022/06/23 07:29:46;;;;;;;1.73;1.43;;;22.40;99.90;;;;;;5069192;28;20655;-89
2022/06/23 07:32:18;;;;;;;2.57;2.23;;;22.40;99.90;;;;;;5067593;28;20618;-90
2022/06/23 07:34:50;;;;;;;1.80;1.70;;;22.40;99.90;;;;;;5069093;28;20699;-90
2022/06/23 07:37:25;;;;;;;2.50;1.63;;;22.60;99.90;;;;;;5068796;28;20623;-88
2022/06/23 07:40:00;;;;;;;2.83;2.63;;;22.70;99.90;;;;;;5055967;28;20622;-91
2022/06/23 07:42:38;;;;;;;2.73;1.73;;;22.70;99.90;;;;;;5040790;28;20685;-89
2022/06/23 07:45:13;;;;;;;1.50;1.40;;;22.80;99.90;;;;;;5047869;28;20692;-90
2022/06/23 07:47:40;;;;;;;1.80;1.70;;;23.00;99.90;;;;;;5048128;28;20664;-89
2022/06/23 07:50:08;;;;;;;2.10;1.40;;;23.10;99.90;;;;;;5047915;28;20669;-90
2022/06/23 07:52:38;;;;;;;1.83;1.40;;;23.20;99.70;;;;;;5047819;28;21259;-90
2022/06/23 07:55:06;;;;;;;1.67;1.57;;;23.20;99.30;;;;;;5048177;28;20700;-88
2022/06/23 07:57:35;;;;;;;1.57;1.40;;;23.20;99.40;;;;;;5046650;28;20625;-90
2022/06/23 08:00:07;;;;;;;2.53;1.57;;;23.30;99.10;;;;;;5048997;28;20622;-90
2022/06/23 08:02:43;;;;;;;1.40;1.30;;;23.50;98.50;;;;;;5048253;28;20622;-88
2022/06/23 08:05:15;;;;;;;2.17;2.00;;;23.40;97.70;;;;;;5048327;28;20945;-90
2022/06/23 08:07:43;;;;;;;2.13;1.73;;;23.50;97.90;;;;;;5047685;28;20622;-89
2022/06/23 08:10:14;;;;;;;1.40;1.30;;;23.60;98.40;;;;;;5068730;28;20616;-89
2022/06/23 08:12:55;;;;;;;1.73;1.63;;;23.70;97.70;;;;;;5068189;28;21494;-89
2022/06/23 08:18:24;;;;;;;1.87;1.50;;;23.80;97.00;;;;;;5068038;28;20617;-89
2022/06/23 08:20:59;;;;;;;1.43;1.33;;;23.90;96.80;;;;;;5068373;28;20715;-89
2022/06/23 08:23:29;;;;;;;1.40;1.07;;;24.00;96.20;;;;;;5048261;28;21156;-87
2022/06/23 08:25:56;;;;;;;1.87;1.33;;;24.10;96.30;;;;;;5047755;28;20621;-91
2022/06/23 08:28:23;;;;;;;1.47;1.37;;;24.20;95.40;;;;;;5047870;28;20621;-89
2022/06/23 08:30:50;;;;;;;2.17;2.07;;;24.30;96.60;;;;;;5047370;28;21135;-90
2022/06/23 08:33:18;;;;;;;1.87;1.60;;;24.40;95.70;;;;;;5047604;28;20668;-87
2022/06/23 08:35:49;;;;;;;2.00;1.23;;;24.40;94.40;;;;;;5047652;28;20617;-89
2022/06/23 08:38:21;;;;;;;3.10;2.07;;;24.40;94.60;;;;;;5047781;28;21177;-89
2022/06/23 08:41:16;;;;;;;1.43;1.00;;;24.50;95.50;;;;;;5034699;28;20717;-89
2022/06/23 08:43:50;;;;;;;1.60;1.40;;;24.60;94.30;;;;;;5068940;28;20617;-90
2022/06/23 08:46:23;;;;;;;2.03;1.80;;;24.70;94.80;;;;;;5070551;28;20621;-89
2022/06/23 08:49:01;;;;;;;1.70;1.60;;;24.80;95.10;;;;;;5071597;28;20714;-88
2022/06/23 08:51:41;;;;;;;1.33;1.23;;;24.90;93.20;;;;;;5070568;28;20613;-90
2022/06/23 08:54:17;;;;;;;5.10;1.63;;;24.80;93.00;;;;;;5071779;28;20652;-88
2022/06/23 08:56:52;;;;;;;2.80;1.73;;;25.00;92.90;;;;;;5070108;28;20609;-88
2022/06/23 08:59:26;;;;;;;1.00;1.00;;;25.10;93.80;;;;;;5071373;28;20652;-87
2022/06/23 09:02:04;;;;;;;1.60;1.50;;;25.10;93.10;;;;;;5070118;28;20638;-89
2022/06/23 09:04:45;;;;;;;0.93;0.93;;;25.20;92.90;;;;;;5071447;28;20616;-88
2022/06/23 09:07:23;;;;;;;3.17;1.57;;;25.30;91.60;;;;;;5070846;28;20732;-88
2022/06/23 09:09:57;;;;;;;1.77;1.53;;;25.40;92.80;;;;;;5071022;28;20613;-88
2022/06/23 09:12:31;;;;;;;1.70;1.60;;;25.50;93.10;;;;;;5070180;28;20640;-89
2022/06/23 09:15:40;;;;;;;1.77;1.63;;;25.40;92.90;;;;;;5070882;28;20655;-88
2022/06/23 09:18:41;;;;;;;1.40;1.30;;;25.70;91.70;;;;;;5070361;28;21277;-89
2022/06/23 09:21:32;;;;;;;1.87;1.43;;;25.70;91.10;;;;;;5070587;28;20682;-88
2022/06/23 09:24:33;;;;;;;1.53;1.43;;;25.80;91.60;;;;;;5070711;28;21159;-87
2022/06/23 09:27:11;;;;;;;1.27;1.10;;;25.80;91.40;;;;;;5065147;28;20715;-87
2022/06/23 09:29:56;;;;;;;1.30;1.20;;;25.80;90.60;;;;;;5070853;28;20715;-90
2022/06/23 09:32:34;;;;;;;1.60;1.40;;;26.00;90.20;;;;;;5070115;28;21206;-89
2022/06/23 09:35:30;;;;;;;1.97;1.73;;;26.10;90.70;;;;;;5070783;28;20763;-90
2022/06/23 09:38:18;;;;;;;1.60;1.50;;;26.10;90.10;;;;;;5070434;28;20624;-89
2022/06/23 09:40:58;;;;;;;1.67;1.50;;;26.10;90.30;;;;;;5050658;28;20624;-88
2022/06/23 09:44:01;;;;;;;1.83;1.70;;;26.30;90.00;;;;;;5050236;28;20654;-88
2022/06/23 09:47:04;;;;;;;3.33;1.70;;;26.40;89.60;;;;;;5041326;28;20629;-90
2022/06/23 09:49:58;;;;;;;1.43;1.37;;;26.50;90.40;;;;;;5051142;28;20614;-87
2022/06/23 09:52:39;;;;;;;1.37;1.27;;;26.30;90.00;;;;;;5070056;28;21191;-88
2022/06/23 09:55:34;;;;;;;3.13;1.60;;;26.50;90.10;;;;;;5069616;28;21217;-89
2022/06/23 09:58:38;;;;;;;1.60;1.30;;;26.50;87.50;;;;;;5055568;28;20624;-89
2022/06/23 10:01:24;;;;;;;1.00;1.00;;;26.70;87.30;;;;;;5069977;28;20616;-88
2022/06/23 10:04:15;;;;;;;2.10;1.40;;;26.70;87.40;;;;;;5030282;28;20611;-90
2022/06/23 10:07:09;;;;;;;1.23;1.13;;;26.70;90.00;;;;;;5029025;28;20623;-89
2022/06/23 10:09:53;;;;;;;1.57;1.10;;;26.90;85.40;;;;;;5010825;28;20689;-87
2022/06/23 10:12:49;;;;;;;1.20;1.20;;;26.90;84.00;;;;;;5039804;28;20721;-88
2022/06/23 10:15:34;;;;;;;1.43;1.10;;;27.10;83.80;;;;;;5055901;28;20746;-87
2022/06/23 10:18:25;;;;;;;2.00;1.30;;;27.20;84.80;;;;;;5069106;28;20955;-88
2022/06/23 10:21:07;;;;;;;1.37;1.27;;;27.40;83.60;;;;;;5069505;28;20620;-88
2022/06/23 10:23:51;;;;;;;2.47;1.63;;;27.50;81.30;;;;;;5069806;28;21057;-87
2022/06/23 10:26:33;;;;;;;4.00;1.83;;;27.50;82.60;;;;;;5068921;28;20613;-88
2022/06/23 10:29:34;;;;;;;1.63;1.53;;;27.60;81.10;;;;;;5069301;28;21312;-87
2022/06/23 10:32:37;;;;;;;1.57;1.30;;;27.80;80.20;;;;;;5068498;28;21248;-89
2022/06/23 10:35:20;;;;;;;1.27;1.17;;;27.70;79.10;;;;;;5069404;28;21089;-88
2022/06/23 10:38:14;;;;;;;1.17;1.07;;;27.80;81.80;;;;;;5068457;28;21029;-90
2022/06/23 10:41:11;;;;;;;3.23;1.20;;;28.10;79.90;;;;;;5050570;28;20669;-90
2022/06/23 10:43:56;;;;;;;1.23;1.13;;;28.30;77.70;;;;;;5049697;28;21097;-88
2022/06/23 10:46:32;;;;;;;1.10;1.07;;;28.50;74.30;;;;;;5048925;28;20632;-89
2022/06/23 10:49:24;;;;;;;1.50;1.40;;;28.50;76.60;;;;;;5049365;28;20614;-88
2022/06/23 10:52:20;;;;;;;0.80;0.80;;;28.50;74.20;;;;;;5068289;28;20669;-88
2022/06/23 10:55:16;;;;;;;1.53;1.03;;;28.60;71.70;;;;;;5068977;28;21285;-89
2022/06/23 10:58:14;;;;;;;1.37;1.33;;;28.70;70.90;;;;;;5068066;28;20699;-87
2022/06/23 11:00:53;;;;;;;2.83;1.03;;;28.60;70.80;;;;;;5068619;28;20715;-88
2022/06/23 11:03:42;;;;;;;1.43;1.13;;;28.70;69.80;;;;;;5068351;28;20609;-89
2022/06/23 11:06:32;;;;;;;1.03;1.03;;;28.80;67.80;;;;;;5067247;28;20704;-88
2022/06/23 11:09:16;;;;;;;1.10;1.10;;;29.10;73.10;;;;;;5068923;28;20608;-90
2022/06/23 11:11:52;;;;;;;4.90;1.20;;;29.40;71.10;;;;;;5068315;28;20637;-87
2022/06/23 11:14:34;;;;;;;2.73;1.37;;;29.40;67.60;;;;;;5068995;28;21117;-88
2022/06/23 11:17:10;;;;;;;2.50;1.20;;;29.70;67.40;;;;;;5067903;28;20695;-88
2022/06/23 11:19:50;;;;;;;2.33;1.20;;;30.00;67.10;;;;;;5068910;28;20612;-90
2022/06/23 11:22:30;;;;;;;1.73;1.60;;;30.30;66.50;;;;;;5068046;28;20657;-88
2022/06/23 11:25:05;;;;;;;1.73;1.63;;;30.40;67.10;;;;;;5068660;28;20652;-90
2022/06/23 11:27:43;;;;;;;2.93;1.33;;;30.50;64.40;;;;;;5068041;28;20631;-88
2022/06/23 11:30:22;;;;;;;1.10;1.10;;;30.70;63.50;;;;;;5067491;28;20627;-88
2022/06/23 11:33:14;;;;;;;1.43;1.17;;;31.00;59.60;;;;;;5067170;28;20628;-88
2022/06/23 11:36:06;;;;;;;1.90;1.00;;;30.90;62.10;;;;;;5066105;28;20657;-88
2022/06/23 11:38:55;;;;;;;1.17;1.07;;;31.10;64.20;;;;;;5067513;28;20617;-87
2022/06/23 11:41:42;;;;;;;1.37;1.07;;;31.40;62.90;;;;;;5047622;28;20672;-89
2022/06/23 11:44:24;;;;;;;1.30;1.27;;;31.80;63.00;;;;;;5067571;28;21242;-87
2022/06/23 11:46:59;;;;;;;1.80;1.53;;;32.10;60.30;;;;;;5067916;28;20613;-89
2022/06/23 11:49:38;;;;;;;1.23;1.13;;;32.60;57.80;;;;;;5063314;28;20692;-88
2022/06/23 11:52:20;;;;;;;1.70;1.60;;;32.50;57.60;;;;;;5053894;28;20609;-90
2022/06/23 11:55:00;;;;;;;1.50;1.37;;;32.80;58.10;;;;;;5067982;28;20671;-89
2022/06/23 11:57:43;;;;;;;2.70;1.53;;;33.10;58.80;;;;;;5066968;28;20607;-89
2022/06/23 12:00:12;;;;;;;1.37;1.27;;;33.40;56.80;;;;;;5048328;28;21025;-91
2022/06/23 12:02:52;;;;;;;1.30;1.20;;;33.40;56.40;;;;;;5049551;28;20617;-90
2022/06/23 12:05:28;;;;;;;1.23;1.13;;;33.60;56.10;;;;;;5047698;28;20645;-91
2022/06/23 12:08:33;;;;;;;1.93;1.73;;;34.20;55.30;;;;;;5047220;28;20698;-91
2022/06/23 12:11:00;;;;;;;1.50;1.23;;;35.50;53.30;;;;;;5006144;28;21005;-88
2022/06/23 12:13:29;;;;;;;1.17;1.17;;;36.10;51.80;;;;;;5049360;28;21029;-89
2022/06/23 12:15:56;;;;;;;1.20;1.10;;;36.80;52.00;;;;;;5044931;28;20199;-89
2022/06/23 12:18:28;;;;;;;1.85;1.20;;;37.20;49.10;;;;;;5049017;28;20207;-87
2022/06/23 12:21:00;;;;;;;1.10;1.05;;;37.70;48.80;;;;;;5051048;28;20693;-89
2022/06/23 12:23:34;;;;;;;1.50;1.40;;;38.20;47.40;;;;;;5069182;28;20194;-86
2022/06/23 12:26:09;;;;;;;1.35;1.17;;;37.90;46.30;;;;;;5070476;28;20201;-88
2022/06/23 12:28:41;;;;;;;1.70;1.60;;;37.00;46.60;;;;;;5071410;28;20201;-87
2022/06/23 12:31:18;;;;;;;1.63;1.52;;;36.10;47.30;;;;;;5071844;28;20916;-87
2022/06/23 12:33:54;;;;;;;1.30;1.20;;;35.10;49.90;;;;;;5071896;28;20692;-87
2022/06/23 12:36:28;;;;;;;1.30;1.20;;;35.50;50.40;;;;;;5071848;28;20210;-86
2022/06/23 12:39:00;;;;;;;2.00;1.47;;;36.50;48.20;;;;;;5067776;28;20202;-86
2022/06/23 12:41:31;;;;;;;1.15;1.10;;;37.20;47.50;;;;;;5052401;28;20199;-87
2022/06/23 12:44:04;;;;;;;1.40;1.15;;;37.70;47.10;;;;;;5071581;28;20661;-87
2022/06/23 12:46:42;;;;;;;1.58;1.10;;;37.10;48.80;;;;;;5070710;28;20222;-86
2022/06/23 12:49:27;;;;;;;0.82;0.80;;;37.80;46.90;;;;;;5071347;28;20313;-88
2022/06/23 12:52:12;;;;;;;1.33;1.27;;;38.20;45.50;;;;;;5071145;28;20209;-88
2022/06/23 12:54:54;;;;;;;1.38;1.27;;;38.50;44.40;;;;;;5072094;28;20331;-88
2022/06/23 12:57:49;;;;;;;1.38;1.27;;;38.90;46.60;;;;;;5071578;28;20233;-88
2022/06/23 13:00:20;;;;;;;0.90;0.90;;;39.60;43.60;;;;;;5071574;28;20211;-90
2022/06/23 13:02:52;;;;;;;1.60;0.85;;;39.70;43.80;;;;;;5070785;28;20238;-87
2022/06/23 13:05:23;;;;;;;1.38;1.27;;;39.90;43.30;;;;;;5070701;28;20261;-88
2022/06/23 13:07:55;;;;;;;1.45;0.98;;;40.00;43.90;;;;;;5071155;28;20216;-88
2022/06/23 13:10:28;;;;;;;1.23;1.17;;;40.10;43.10;;;;;;5071741;28;20211;-90
2022/06/23 13:13:09;;;;;;;1.00;1.00;;;39.40;43.20;;;;;;5070757;28;20285;-88
2022/06/23 13:15:45;;;;;;;1.05;0.95;;;38.30;43.70;;;;;;5070918;28;20218;-89
2022/06/23 13:18:20;;;;;;;1.30;1.20;;;36.90;46.10;;;;;;5070436;28;20575;-87
2022/06/23 13:20:52;;;;;;;1.30;1.20;;;38.20;45.50;;;;;;5070953;28;20729;-88
2022/06/23 13:23:21;;;;;;;1.10;1.00;;;39.30;43.50;;;;;;5070724;28;20252;-87
2022/06/23 13:25:54;;;;;;;1.50;1.25;;;39.90;42.40;;;;;;5070554;28;20292;-89
2022/06/23 13:28:31;;;;;;;1.20;1.10;;;40.30;41.50;;;;;;5069928;28;20218;-90
2022/06/23 13:31:07;;;;;;;1.40;1.10;;;40.30;41.30;;;;;;5070230;28;20243;-87
2022/06/23 13:33:39;;;;;;;1.50;0.90;;;40.60;40.80;;;;;;5070302;28;20213;-88
2022/06/23 13:36:15;;;;;;;1.20;0.95;;;41.00;40.00;;;;;;5070230;28;20969;-88
2022/06/23 13:38:49;;;;;;;1.70;1.15;;;41.10;39.40;;;;;;5068324;28;20206;-87
2022/06/23 13:41:23;;;;;;;1.15;1.13;;;41.20;39.00;;;;;;5048544;28;20661;-87
2022/06/23 13:43:58;;;;;;;1.40;1.30;;;41.00;38.80;;;;;;5050062;28;20297;-87
2022/06/23 13:46:31;;;;;;;1.20;1.10;;;40.90;39.70;;;;;;5050328;28;20209;-88
2022/06/23 13:49:04;;;;;;;1.10;1.00;;;40.30;40.20;;;;;;5052985;28;20241;-90
2022/06/23 13:51:36;;;;;;;1.15;1.05;;;40.30;39.80;;;;;;5049140;28;20205;-89